In Rescue
 
Open Full Screen Window  High Contrast Mode
Wind Gusting 00 knots
05
January 17, 2021 1:13 PM CST
Present Weather: Mist
Weather Information
Wind Direction
  310 °
Wind Speed
  05 kt (6 mph)
Wind Gust
  00 kt (0 mph)
Altimeter
29.77 in
Visibility
5 SM
Temperature
-05° C
23° F
Dewpoint
-05° C
23° F
Humidity
100%
1hr Rain Fall
00.00 in.
24hr Rain Fall
00.00 in.
Sky Condition
Overcast @ 800 ft
IFR

METAR KPEX 171913Z AUTO 31005KT 5SM BR OVC008 M05/M05 A2977 RMK AO2

FAA Disclaimer: The data displayed is for advisory purposes only and is not to be used for flight planning or operations.